sensor_id;sensor_type;location;lat;lon;timestamp;P1;durP1;ratioP1;P2;durP2;ratioP2
58581;SDS011;44361;51.476;5.700;2022-11-23T00:00:02;12.68;;;3.53;;
58581;SDS011;44361;51.476;5.700;2022-11-23T00:02:28;16.33;;;3.67;;
58581;SDS011;44361;51.476;5.700;2022-11-23T00:04:54;12.52;;;3.50;;
58581;SDS011;44361;51.476;5.700;2022-11-23T00:07:20;16.58;;;2.80;;
58581;SDS011;44361;51.476;5.700;2022-11-23T00:09:45;20.15;;;3.88;;
58581;SDS011;44361;51.476;5.700;2022-11-23T00:12:11;10.52;;;3.20;;
58581;SDS011;44361;51.476;5.700;2022-11-23T00:14:36;14.82;;;3.38;;
58581;SDS011;44361;51.476;5.700;2022-11-23T00:17:02;17.88;;;3.42;;
58581;SDS011;44361;51.476;5.700;2022-11-23T00:19:27;13.20;;;2.63;;
58581;SDS011;44361;51.476;5.700;2022-11-23T00:21:53;18.83;;;3.20;;
58581;SDS011;44361;51.476;5.700;2022-11-23T00:24:18;10.18;;;2.75;;
58581;SDS011;44361;51.476;5.700;2022-11-23T00:26:44;11.85;;;2.70;;
58581;SDS011;44361;51.476;5.700;2022-11-23T00:29:09;10.32;;;2.20;;
58581;SDS011;44361;51.476;5.700;2022-11-23T00:31:35;18.33;;;3.22;;
58581;SDS011;44361;51.476;5.700;2022-11-23T00:34:00;12.23;;;2.60;;
58581;SDS011;44361;51.476;5.700;2022-11-23T00:36:26;11.45;;;2.40;;
58581;SDS011;44361;51.476;5.700;2022-11-23T00:38:52;12.52;;;2.92;;
58581;SDS011;44361;51.476;5.700;2022-11-23T00:41:19;13.32;;;2.85;;
58581;SDS011;44361;51.476;5.700;2022-11-23T00:43:47;19.92;;;3.00;;
58581;SDS011;44361;51.476;5.700;2022-11-23T00:46:14;9.38;;;2.40;;
58581;SDS011;44361;51.476;5.700;2022-11-23T00:48:45;12.35;;;2.05;;
58581;SDS011;44361;51.476;5.700;2022-11-23T00:51:13;13.68;;;2.22;;
58581;SDS011;44361;51.476;5.700;2022-11-23T00:53:40;10.30;;;2.42;;
58581;SDS011;44361;51.476;5.700;2022-11-23T00:56:07;7.70;;;1.95;;
58581;SDS011;44361;51.476;5.700;2022-11-23T00:58:33;8.77;;;1.98;;
58581;SDS011;44361;51.476;5.700;2022-11-23T01:01:03;20.02;;;2.50;;
58581;SDS011;44361;51.476;5.700;2022-11-23T01:03:38;10.57;;;2.42;;
58581;SDS011;44361;51.476;5.700;2022-11-23T01:06:10;12.35;;;2.25;;
58581;SDS011;44361;51.476;5.700;2022-11-23T01:08:37;12.70;;;2.00;;
58581;SDS011;44361;51.476;5.700;2022-11-23T01:11:07;9.68;;;2.10;;
58581;SDS011;44361;51.476;5.700;2022-11-23T01:13:35;12.48;;;2.15;;
58581;SDS011;44361;51.476;5.700;2022-11-23T01:16:02;9.63;;;1.95;;
58581;SDS011;44361;51.476;5.700;2022-11-23T01:18:27;12.30;;;2.88;;
58581;SDS011;44361;51.476;5.700;2022-11-23T01:20:53;10.68;;;2.03;;
58581;SDS011;44361;51.476;5.700;2022-11-23T01:23:19;14.10;;;1.83;;
58581;SDS011;44361;51.476;5.700;2022-11-23T01:25:45;7.68;;;1.60;;
58581;SDS011;44361;51.476;5.700;2022-11-23T01:28:10;6.45;;;1.67;;
58581;SDS011;44361;51.476;5.700;2022-11-23T01:30:36;8.57;;;2.10;;
58581;SDS011;44361;51.476;5.700;2022-11-23T01:33:02;12.50;;;1.90;;
58581;SDS011;44361;51.476;5.700;2022-11-23T01:35:28;12.35;;;2.10;;
58581;SDS011;44361;51.476;5.700;2022-11-23T01:37:53;11.73;;;1.80;;
58581;SDS011;44361;51.476;5.700;2022-11-23T01:40:19;11.00;;;2.22;;
58581;SDS011;44361;51.476;5.700;2022-11-23T01:42:54;15.77;;;2.30;;
58581;SDS011;44361;51.476;5.700;2022-11-23T01:45:33;13.18;;;1.98;;
58581;SDS011;44361;51.476;5.700;2022-11-23T01:48:08;9.90;;;1.95;;
58581;SDS011;44361;51.476;5.700;2022-11-23T01:50:38;11.55;;;1.77;;
58581;SDS011;44361;51.476;5.700;2022-11-23T01:53:04;9.23;;;1.50;;
58581;SDS011;44361;51.476;5.700;2022-11-23T01:55:31;10.02;;;2.03;;
58581;SDS011;44361;51.476;5.700;2022-11-23T01:57:58;10.15;;;1.88;;
58581;SDS011;44361;51.476;5.700;2022-11-23T02:00:24;10.63;;;1.85;;
58581;SDS011;44361;51.476;5.700;2022-11-23T02:02:52;13.07;;;2.03;;
58581;SDS011;44361;51.476;5.700;2022-11-23T02:05:22;14.95;;;2.45;;
58581;SDS011;44361;51.476;5.700;2022-11-23T02:07:52;12.82;;;1.90;;
58581;SDS011;44361;51.476;5.700;2022-11-23T02:10:18;10.38;;;2.15;;
58581;SDS011;44361;51.476;5.700;2022-11-23T02:12:45;14.25;;;1.83;;
58581;SDS011;44361;51.476;5.700;2022-11-23T02:15:10;13.93;;;2.25;;
58581;SDS011;44361;51.476;5.700;2022-11-23T02:17:36;18.05;;;2.13;;
58581;SDS011;44361;51.476;5.700;2022-11-23T02:20:03;10.15;;;2.15;;
58581;SDS011;44361;51.476;5.700;2022-11-23T02:22:50;11.85;;;1.77;;
58581;SDS011;44361;51.476;5.700;2022-11-23T02:28:07;10.43;;;1.70;;
58581;SDS011;44361;51.476;5.700;2022-11-23T02:30:35;10.95;;;1.88;;
58581;SDS011;44361;51.476;5.700;2022-11-23T02:33:03;10.77;;;2.00;;
58581;SDS011;44361;51.476;5.700;2022-11-23T02:35:30;10.00;;;2.60;;
58581;SDS011;44361;51.476;5.700;2022-11-23T02:37:55;16.08;;;2.47;;
58581;SDS011;44361;51.476;5.700;2022-11-23T02:40:26;7.95;;;2.22;;
58581;SDS011;44361;51.476;5.700;2022-11-23T02:42:55;12.98;;;1.90;;
58581;SDS011;44361;51.476;5.700;2022-11-23T02:45:22;7.80;;;1.88;;
58581;SDS011;44361;51.476;5.700;2022-11-23T02:47:52;11.57;;;2.00;;
58581;SDS011;44361;51.476;5.700;2022-11-23T02:50:18;14.52;;;2.00;;
58581;SDS011;44361;51.476;5.700;2022-11-23T02:52:43;12.48;;;1.90;;
58581;SDS011;44361;51.476;5.700;2022-11-23T02:55:09;7.30;;;1.65;;
58581;SDS011;44361;51.476;5.700;2022-11-23T02:57:35;9.35;;;1.77;;
58581;SDS011;44361;51.476;5.700;2022-11-23T03:00:00;15.93;;;2.25;;
58581;SDS011;44361;51.476;5.700;2022-11-23T03:02:26;9.98;;;1.83;;
58581;SDS011;44361;51.476;5.700;2022-11-23T03:04:51;12.80;;;2.40;;
58581;SDS011;44361;51.476;5.700;2022-11-23T03:07:17;12.13;;;2.60;;
58581;SDS011;44361;51.476;5.700;2022-11-23T03:09:42;11.43;;;2.00;;
58581;SDS011;44361;51.476;5.700;2022-11-23T03:12:08;12.43;;;2.40;;
58581;SDS011;44361;51.476;5.700;2022-11-23T03:14:33;19.05;;;2.05;;
58581;SDS011;44361;51.476;5.700;2022-11-23T03:16:59;8.32;;;2.10;;
58581;SDS011;44361;51.476;5.700;2022-11-23T03:19:25;14.52;;;3.78;;
58581;SDS011;44361;51.476;5.700;2022-11-23T03:21:50;27.70;;;2.97;;
58581;SDS011;44361;51.476;5.700;2022-11-23T03:24:16;12.52;;;2.25;;
58581;SDS011;44361;51.476;5.700;2022-11-23T03:26:41;11.43;;;2.03;;
58581;SDS011;44361;51.476;5.700;2022-11-23T03:29:07;15.27;;;2.28;;
58581;SDS011;44361;51.476;5.700;2022-11-23T03:31:33;15.77;;;2.63;;
58581;SDS011;44361;51.476;5.700;2022-11-23T03:33:58;10.85;;;1.90;;
58581;SDS011;44361;51.476;5.700;2022-11-23T03:36:24;15.35;;;2.13;;
58581;SDS011;44361;51.476;5.700;2022-11-23T03:38:49;14.23;;;1.90;;
58581;SDS011;44361;51.476;5.700;2022-11-23T03:41:15;12.15;;;2.15;;
58581;SDS011;44361;51.476;5.700;2022-11-23T03:43:40;11.73;;;2.20;;
58581;SDS011;44361;51.476;5.700;2022-11-23T03:46:06;10.52;;;2.45;;
58581;SDS011;44361;51.476;5.700;2022-11-23T03:48:31;14.23;;;2.10;;
58581;SDS011;44361;51.476;5.700;2022-11-23T03:50:57;8.32;;;1.90;;
58581;SDS011;44361;51.476;5.700;2022-11-23T03:53:22;13.13;;;2.65;;
58581;SDS011;44361;51.476;5.700;2022-11-23T03:55:48;15.85;;;1.98;;
58581;SDS011;44361;51.476;5.700;2022-11-23T03:58:13;10.40;;;1.88;;
58581;SDS011;44361;51.476;5.700;2022-11-23T04:00:39;12.88;;;2.70;;
58581;SDS011;44361;51.476;5.700;2022-11-23T04:03:04;13.15;;;2.50;;
58581;SDS011;44361;51.476;5.700;2022-11-23T04:05:30;14.27;;;2.75;;
58581;SDS011;44361;51.476;5.700;2022-11-23T04:07:56;16.45;;;1.95;;
58581;SDS011;44361;51.476;5.700;2022-11-23T04:10:21;16.05;;;2.17;;
58581;SDS011;44361;51.476;5.700;2022-11-23T04:12:50;11.10;;;2.15;;
58581;SDS011;44361;51.476;5.700;2022-11-23T04:15:16;13.90;;;1.92;;
58581;SDS011;44361;51.476;5.700;2022-11-23T04:17:42;16.33;;;2.10;;
58581;SDS011;44361;51.476;5.700;2022-11-23T04:20:08;10.02;;;2.08;;
58581;SDS011;44361;51.476;5.700;2022-11-23T04:22:34;19.75;;;2.88;;
58581;SDS011;44361;51.476;5.700;2022-11-23T04:24:59;16.23;;;2.40;;
58581;SDS011;44361;51.476;5.700;2022-11-23T04:27:25;7.35;;;2.00;;
58581;SDS011;44361;51.476;5.700;2022-11-23T04:29:50;10.88;;;1.90;;
58581;SDS011;44361;51.476;5.700;2022-11-23T04:32:16;11.52;;;2.10;;
58581;SDS011;44361;51.476;5.700;2022-11-23T04:34:41;14.35;;;2.55;;
58581;SDS011;44361;51.476;5.700;2022-11-23T04:37:07;19.83;;;2.75;;
58581;SDS011;44361;51.476;5.700;2022-11-23T04:39:33;13.60;;;2.75;;
58581;SDS011;44361;51.476;5.700;2022-11-23T04:41:58;14.90;;;2.50;;
58581;SDS011;44361;51.476;5.700;2022-11-23T04:44:24;13.45;;;2.50;;
58581;SDS011;44361;51.476;5.700;2022-11-23T04:46:49;15.55;;;2.65;;
58581;SDS011;44361;51.476;5.700;2022-11-23T04:49:15;15.77;;;3.17;;
58581;SDS011;44361;51.476;5.700;2022-11-23T04:51:41;12.40;;;2.17;;
58581;SDS011;44361;51.476;5.700;2022-11-23T04:54:06;15.38;;;1.98;;
58581;SDS011;44361;51.476;5.700;2022-11-23T04:56:32;16.70;;;2.40;;
58581;SDS011;44361;51.476;5.700;2022-11-23T04:58:57;16.55;;;2.47;;
58581;SDS011;44361;51.476;5.700;2022-11-23T05:01:23;16.88;;;2.35;;
58581;SDS011;44361;51.476;5.700;2022-11-23T05:03:48;12.75;;;2.03;;
58581;SDS011;44361;51.476;5.700;2022-11-23T05:06:14;8.93;;;1.73;;
58581;SDS011;44361;51.476;5.700;2022-11-23T05:08:39;13.65;;;2.33;;
58581;SDS011;44361;51.476;5.700;2022-11-23T05:11:06;18.80;;;2.70;;
58581;SDS011;44361;51.476;5.700;2022-11-23T05:13:31;13.43;;;2.25;;
58581;SDS011;44361;51.476;5.700;2022-11-23T05:15:57;14.35;;;2.17;;
58581;SDS011;44361;51.476;5.700;2022-11-23T05:18:22;14.20;;;2.20;;
58581;SDS011;44361;51.476;5.700;2022-11-23T05:20:48;12.90;;;2.20;;
58581;SDS011;44361;51.476;5.700;2022-11-23T05:23:13;13.70;;;2.75;;
58581;SDS011;44361;51.476;5.700;2022-11-23T05:25:39;20.13;;;2.40;;
58581;SDS011;44361;51.476;5.700;2022-11-23T05:28:05;16.85;;;2.83;;
58581;SDS011;44361;51.476;5.700;2022-11-23T05:30:30;10.20;;;2.03;;
58581;SDS011;44361;51.476;5.700;2022-11-23T05:32:58;12.82;;;2.00;;
58581;SDS011;44361;51.476;5.700;2022-11-23T05:35:25;17.48;;;2.25;;
58581;SDS011;44361;51.476;5.700;2022-11-23T05:37:51;15.23;;;2.40;;
58581;SDS011;44361;51.476;5.700;2022-11-23T05:40:17;18.50;;;2.42;;
58581;SDS011;44361;51.476;5.700;2022-11-23T05:42:43;17.55;;;2.70;;
58581;SDS011;44361;51.476;5.700;2022-11-23T05:45:09;16.75;;;2.65;;
58581;SDS011;44361;51.476;5.700;2022-11-23T05:47:34;12.10;;;2.20;;
58581;SDS011;44361;51.476;5.700;2022-11-23T05:50:00;15.90;;;2.25;;
58581;SDS011;44361;51.476;5.700;2022-11-23T05:52:26;11.88;;;2.40;;
58581;SDS011;44361;51.476;5.700;2022-11-23T05:54:51;16.50;;;2.13;;
58581;SDS011;44361;51.476;5.700;2022-11-23T05:57:17;16.80;;;2.50;;
58581;SDS011;44361;51.476;5.700;2022-11-23T05:59:42;14.35;;;1.88;;
58581;SDS011;44361;51.476;5.700;2022-11-23T06:02:08;19.08;;;2.47;;
58581;SDS011;44361;51.476;5.700;2022-11-23T06:04:33;16.40;;;2.28;;
58581;SDS011;44361;51.476;5.700;2022-11-23T06:06:59;17.02;;;2.65;;
58581;SDS011;44361;51.476;5.700;2022-11-23T06:09:25;12.88;;;2.22;;
58581;SDS011;44361;51.476;5.700;2022-11-23T06:11:51;16.55;;;2.08;;
58581;SDS011;44361;51.476;5.700;2022-11-23T06:14:17;20.33;;;2.42;;
58581;SDS011;44361;51.476;5.700;2022-11-23T06:16:43;20.35;;;2.95;;
58581;SDS011;44361;51.476;5.700;2022-11-23T06:19:08;12.18;;;1.63;;
58581;SDS011;44361;51.476;5.700;2022-11-23T06:21:34;17.67;;;2.55;;
58581;SDS011;44361;51.476;5.700;2022-11-23T06:23:59;11.38;;;2.25;;
58581;SDS011;44361;51.476;5.700;2022-11-23T06:26:25;13.07;;;2.45;;
58581;SDS011;44361;51.476;5.700;2022-11-23T06:28:50;12.05;;;2.10;;
58581;SDS011;44361;51.476;5.700;2022-11-23T06:31:16;18.65;;;2.40;;
58581;SDS011;44361;51.476;5.700;2022-11-23T06:33:42;14.88;;;2.50;;
58581;SDS011;44361;51.476;5.700;2022-11-23T06:36:08;12.13;;;1.73;;
58581;SDS011;44361;51.476;5.700;2022-11-23T06:38:35;18.98;;;2.40;;
58581;SDS011;44361;51.476;5.700;2022-11-23T06:41:00;15.20;;;2.35;;
58581;SDS011;44361;51.476;5.700;2022-11-23T06:43:27;19.30;;;2.72;;
58581;SDS011;44361;51.476;5.700;2022-11-23T06:45:53;27.02;;;2.97;;
58581;SDS011;44361;51.476;5.700;2022-11-23T06:48:19;21.27;;;2.65;;
58581;SDS011;44361;51.476;5.700;2022-11-23T06:50:45;16.23;;;2.50;;
58581;SDS011;44361;51.476;5.700;2022-11-23T06:53:11;18.33;;;2.40;;
58581;SDS011;44361;51.476;5.700;2022-11-23T06:55:36;20.65;;;2.50;;
58581;SDS011;44361;51.476;5.700;2022-11-23T06:58:02;9.15;;;1.80;;
58581;SDS011;44361;51.476;5.700;2022-11-23T07:00:28;11.77;;;2.22;;
58581;SDS011;44361;51.476;5.700;2022-11-23T07:02:54;14.38;;;2.20;;
58581;SDS011;44361;51.476;5.700;2022-11-23T07:05:20;9.48;;;3.17;;
58581;SDS011;44361;51.476;5.700;2022-11-23T07:07:46;17.80;;;2.35;;
58581;SDS011;44361;51.476;5.700;2022-11-23T07:10:12;21.17;;;2.80;;
58581;SDS011;44361;51.476;5.700;2022-11-23T07:12:38;10.15;;;1.88;;
58581;SDS011;44361;51.476;5.700;2022-11-23T07:15:04;19.27;;;2.38;;
58581;SDS011;44361;51.476;5.700;2022-11-23T07:17:30;11.77;;;2.47;;
58581;SDS011;44361;51.476;5.700;2022-11-23T07:19:56;12.30;;;2.25;;
58581;SDS011;44361;51.476;5.700;2022-11-23T07:22:21;13.95;;;2.28;;
58581;SDS011;44361;51.476;5.700;2022-11-23T07:24:47;20.88;;;2.50;;
58581;SDS011;44361;51.476;5.700;2022-11-23T07:27:12;9.57;;;1.80;;
58581;SDS011;44361;51.476;5.700;2022-11-23T07:29:40;15.75;;;1.90;;
58581;SDS011;44361;51.476;5.700;2022-11-23T07:32:05;18.15;;;2.22;;
58581;SDS011;44361;51.476;5.700;2022-11-23T07:34:32;13.82;;;2.25;;
58581;SDS011;44361;51.476;5.700;2022-11-23T07:36:58;17.88;;;2.55;;
58581;SDS011;44361;51.476;5.700;2022-11-23T07:39:23;16.85;;;2.08;;
58581;SDS011;44361;51.476;5.700;2022-11-23T07:41:49;13.68;;;2.22;;
58581;SDS011;44361;51.476;5.700;2022-11-23T07:44:14;11.45;;;2.33;;
58581;SDS011;44361;51.476;5.700;2022-11-23T07:46:40;13.43;;;1.70;;
58581;SDS011;44361;51.476;5.700;2022-11-23T07:49:05;21.30;;;2.63;;
58581;SDS011;44361;51.476;5.700;2022-11-23T07:51:31;18.45;;;2.35;;
58581;SDS011;44361;51.476;5.700;2022-11-23T07:53:57;21.35;;;2.53;;
58581;SDS011;44361;51.476;5.700;2022-11-23T07:56:23;9.18;;;1.95;;
58581;SDS011;44361;51.476;5.700;2022-11-23T07:58:49;16.98;;;2.38;;
58581;SDS011;44361;51.476;5.700;2022-11-23T08:01:18;16.67;;;2.30;;
58581;SDS011;44361;51.476;5.700;2022-11-23T08:03:44;11.57;;;1.92;;
58581;SDS011;44361;51.476;5.700;2022-11-23T08:06:10;14.88;;;1.95;;
58581;SDS011;44361;51.476;5.700;2022-11-23T08:08:36;12.07;;;2.22;;
58581;SDS011;44361;51.476;5.700;2022-11-23T08:11:06;16.00;;;2.63;;
58581;SDS011;44361;51.476;5.700;2022-11-23T08:13:33;14.07;;;2.70;;
58581;SDS011;44361;51.476;5.700;2022-11-23T08:15:58;19.20;;;2.83;;
58581;SDS011;44361;51.476;5.700;2022-11-23T08:18:24;8.90;;;1.88;;
58581;SDS011;44361;51.476;5.700;2022-11-23T08:20:50;12.05;;;1.90;;
58581;SDS011;44361;51.476;5.700;2022-11-23T08:23:16;17.98;;;2.55;;
58581;SDS011;44361;51.476;5.700;2022-11-23T08:25:41;14.05;;;2.13;;
58581;SDS011;44361;51.476;5.700;2022-11-23T08:28:07;21.10;;;3.03;;
58581;SDS011;44361;51.476;5.700;2022-11-23T08:30:33;13.43;;;1.98;;
58581;SDS011;44361;51.476;5.700;2022-11-23T08:33:03;12.38;;;2.08;;
58581;SDS011;44361;51.476;5.700;2022-11-23T08:35:32;12.75;;;1.73;;
58581;SDS011;44361;51.476;5.700;2022-11-23T08:38:00;18.85;;;2.53;;
58581;SDS011;44361;51.476;5.700;2022-11-23T08:40:26;16.55;;;2.35;;
58581;SDS011;44361;51.476;5.700;2022-11-23T08:42:51;14.02;;;2.25;;
58581;SDS011;44361;51.476;5.700;2022-11-23T08:45:19;14.13;;;1.88;;
58581;SDS011;44361;51.476;5.700;2022-11-23T08:47:45;13.35;;;2.08;;
58581;SDS011;44361;51.476;5.700;2022-11-23T08:50:11;11.85;;;2.17;;
58581;SDS011;44361;51.476;5.700;2022-11-23T08:52:37;14.57;;;2.10;;
58581;SDS011;44361;51.476;5.700;2022-11-23T08:55:03;13.05;;;1.83;;
58581;SDS011;44361;51.476;5.700;2022-11-23T08:57:29;8.48;;;2.10;;
58581;SDS011;44361;51.476;5.700;2022-11-23T08:59:54;15.63;;;1.83;;
58581;SDS011;44361;51.476;5.700;2022-11-23T09:02:20;12.60;;;2.08;;
58581;SDS011;44361;51.476;5.700;2022-11-23T09:04:45;15.63;;;2.20;;
58581;SDS011;44361;51.476;5.700;2022-11-23T09:07:12;9.13;;;1.70;;
58581;SDS011;44361;51.476;5.700;2022-11-23T09:09:37;13.63;;;2.17;;
58581;SDS011;44361;51.476;5.700;2022-11-23T09:12:03;15.45;;;1.90;;
58581;SDS011;44361;51.476;5.700;2022-11-23T09:14:29;7.72;;;1.58;;
58581;SDS011;44361;51.476;5.700;2022-11-23T09:16:55;12.80;;;1.85;;
58581;SDS011;44361;51.476;5.700;2022-11-23T09:19:21;16.88;;;1.90;;
58581;SDS011;44361;51.476;5.700;2022-11-23T09:21:46;14.27;;;2.08;;
58581;SDS011;44361;51.476;5.700;2022-11-23T09:24:12;12.18;;;2.10;;
58581;SDS011;44361;51.476;5.700;2022-11-23T09:26:38;9.13;;;1.50;;
58581;SDS011;44361;51.476;5.700;2022-11-23T09:29:05;12.05;;;2.03;;
58581;SDS011;44361;51.476;5.700;2022-11-23T09:31:32;13.23;;;2.00;;
58581;SDS011;44361;51.476;5.700;2022-11-23T09:33:58;17.95;;;1.80;;
58581;SDS011;44361;51.476;5.700;2022-11-23T09:36:23;9.80;;;1.63;;
58581;SDS011;44361;51.476;5.700;2022-11-23T09:38:49;10.85;;;1.85;;
58581;SDS011;44361;51.476;5.700;2022-11-23T09:52:31;9.50;;;1.35;;
58581;SDS011;44361;51.476;5.700;2022-11-23T09:55:00;10.73;;;2.10;;
58581;SDS011;44361;51.476;5.700;2022-11-23T09:57:31;14.63;;;2.15;;
58581;SDS011;44361;51.476;5.700;2022-11-23T10:00:01;12.10;;;1.90;;
58581;SDS011;44361;51.476;5.700;2022-11-23T10:02:33;9.13;;;1.73;;
58581;SDS011;44361;51.476;5.700;2022-11-23T10:05:04;13.23;;;1.25;;
58581;SDS011;44361;51.476;5.700;2022-11-23T10:15:52;18.15;;;2.17;;
58581;SDS011;44361;51.476;5.700;2022-11-23T10:21:12;8.07;;;1.48;;
58581;SDS011;44361;51.476;5.700;2022-11-23T10:24:04;17.13;;;1.67;;
58581;SDS011;44361;51.476;5.700;2022-11-23T10:26:44;7.65;;;0.98;;
58581;SDS011;44361;51.476;5.700;2022-11-23T10:29:13;10.07;;;2.30;;
58581;SDS011;44361;51.476;5.700;2022-11-23T10:31:40;12.85;;;2.00;;
58581;SDS011;44361;51.476;5.700;2022-11-23T10:34:11;10.90;;;1.20;;
58581;SDS011;44361;51.476;5.700;2022-11-23T10:36:40;9.43;;;1.50;;
58581;SDS011;44361;51.476;5.700;2022-11-23T10:41:47;5.85;;;1.42;;
58581;SDS011;44361;51.476;5.700;2022-11-23T10:46:52;10.40;;;1.38;;
58581;SDS011;44361;51.476;5.700;2022-11-23T10:49:19;11.77;;;2.05;;
58581;SDS011;44361;51.476;5.700;2022-11-23T10:51:53;11.10;;;1.75;;
58581;SDS011;44361;51.476;5.700;2022-11-23T10:54:34;8.85;;;1.70;;
58581;SDS011;44361;51.476;5.700;2022-11-23T11:02:26;9.10;;;1.83;;
58581;SDS011;44361;51.476;5.700;2022-11-23T11:05:11;9.52;;;1.60;;
58581;SDS011;44361;51.476;5.700;2022-11-23T11:07:53;14.30;;;1.73;;
58581;SDS011;44361;51.476;5.700;2022-11-23T11:13:25;7.88;;;1.13;;
58581;SDS011;44361;51.476;5.700;2022-11-23T11:15:52;10.25;;;1.40;;
58581;SDS011;44361;51.476;5.700;2022-11-23T11:18:24;7.72;;;1.33;;
58581;SDS011;44361;51.476;5.700;2022-11-23T11:20:55;9.48;;;1.77;;
58581;SDS011;44361;51.476;5.700;2022-11-23T11:23:25;6.82;;;1.05;;
58581;SDS011;44361;51.476;5.700;2022-11-23T11:26:01;8.35;;;1.20;;
58581;SDS011;44361;51.476;5.700;2022-11-23T11:33:28;5.47;;;1.58;;
58581;SDS011;44361;51.476;5.700;2022-11-23T11:36:01;4.72;;;0.70;;
58581;SDS011;44361;51.476;5.700;2022-11-23T11:38:30;5.63;;;1.27;;
58581;SDS011;44361;51.476;5.700;2022-11-23T11:41:00;7.20;;;0.90;;
58581;SDS011;44361;51.476;5.700;2022-11-23T11:43:31;6.30;;;0.80;;
58581;SDS011;44361;51.476;5.700;2022-11-23T11:46:13;8.40;;;1.38;;
58581;SDS011;44361;51.476;5.700;2022-11-23T11:48:48;6.68;;;1.08;;
58581;SDS011;44361;51.476;5.700;2022-11-23T11:53:48;6.47;;;1.00;;
58581;SDS011;44361;51.476;5.700;2022-11-23T11:59:16;6.93;;;0.95;;
58581;SDS011;44361;51.476;5.700;2022-11-23T12:01:46;6.68;;;0.90;;
58581;SDS011;44361;51.476;5.700;2022-11-23T12:04:17;7.35;;;1.13;;
58581;SDS011;44361;51.476;5.700;2022-11-23T12:13:02;7.55;;;0.93;;
58581;SDS011;44361;51.476;5.700;2022-11-23T12:15:33;3.75;;;0.70;;
58581;SDS011;44361;51.476;5.700;2022-11-23T12:20:50;5.28;;;0.70;;
58581;SDS011;44361;51.476;5.700;2022-11-23T12:26:25;4.40;;;0.73;;
58581;SDS011;44361;51.476;5.700;2022-11-23T12:28:59;8.57;;;1.40;;
58581;SDS011;44361;51.476;5.700;2022-11-23T12:31:45;7.68;;;0.98;;
58581;SDS011;44361;51.476;5.700;2022-11-23T12:39:52;3.97;;;0.90;;
58581;SDS011;44361;51.476;5.700;2022-11-23T12:42:44;5.95;;;0.77;;
58581;SDS011;44361;51.476;5.700;2022-11-23T12:47:52;5.68;;;1.02;;
58581;SDS011;44361;51.476;5.700;2022-11-23T12:50:42;9.95;;;1.88;;
58581;SDS011;44361;51.476;5.700;2022-11-23T12:55:56;7.50;;;1.10;;
58581;SDS011;44361;51.476;5.700;2022-11-23T12:58:33;7.82;;;0.98;;
58581;SDS011;44361;51.476;5.700;2022-11-23T13:01:11;4.82;;;1.02;;
58581;SDS011;44361;51.476;5.700;2022-11-23T13:16:56;3.58;;;0.70;;
58581;SDS011;44361;51.476;5.700;2022-11-23T13:22:31;10.52;;;1.48;;
58581;SDS011;44361;51.476;5.700;2022-11-23T13:30:21;9.55;;;1.08;;
58581;SDS011;44361;51.476;5.700;2022-11-23T13:35:54;6.40;;;1.00;;
58581;SDS011;44361;51.476;5.700;2022-11-23T13:38:23;6.55;;;0.93;;
58581;SDS011;44361;51.476;5.700;2022-11-23T13:40:59;5.65;;;0.80;;
58581;SDS011;44361;51.476;5.700;2022-11-23T13:43:26;5.45;;;1.08;;
58581;SDS011;44361;51.476;5.700;2022-11-23T13:48:47;6.18;;;0.95;;
58581;SDS011;44361;51.476;5.700;2022-11-23T13:51:49;7.78;;;1.02;;
58581;SDS011;44361;51.476;5.700;2022-11-23T13:54:20;4.57;;;0.82;;
58581;SDS011;44361;51.476;5.700;2022-11-23T13:56:58;5.18;;;0.80;;
58581;SDS011;44361;51.476;5.700;2022-11-23T13:59:32;2.83;;;0.68;;
58581;SDS011;44361;51.476;5.700;2022-11-23T14:04:42;8.82;;;1.13;;
58581;SDS011;44361;51.476;5.700;2022-11-23T14:07:23;5.57;;;1.00;;
58581;SDS011;44361;51.476;5.700;2022-11-23T14:14:55;6.28;;;1.17;;
58581;SDS011;44361;51.476;5.700;2022-11-23T14:17:54;5.18;;;0.90;;
58581;SDS011;44361;51.476;5.700;2022-11-23T14:20:51;4.10;;;1.20;;
58581;SDS011;44361;51.476;5.700;2022-11-23T14:26:37;4.53;;;1.55;;
58581;SDS011;44361;51.476;5.700;2022-11-23T14:31:56;5.40;;;1.35;;
58581;SDS011;44361;51.476;5.700;2022-11-23T14:37:38;6.32;;;1.40;;
58581;SDS011;44361;51.476;5.700;2022-11-23T14:43:21;8.07;;;1.45;;
58581;SDS011;44361;51.476;5.700;2022-11-23T14:45:46;7.03;;;1.35;;
58581;SDS011;44361;51.476;5.700;2022-11-23T14:48:22;5.45;;;1.10;;
58581;SDS011;44361;51.476;5.700;2022-11-23T14:53:30;4.75;;;1.35;;
58581;SDS011;44361;51.476;5.700;2022-11-23T14:55:58;12.90;;;1.95;;
58581;SDS011;44361;51.476;5.700;2022-11-23T14:58:24;7.10;;;1.60;;
58581;SDS011;44361;51.476;5.700;2022-11-23T15:00:57;5.97;;;1.55;;
58581;SDS011;44361;51.476;5.700;2022-11-23T15:03:27;11.80;;;2.30;;
58581;SDS011;44361;51.476;5.700;2022-11-23T15:06:09;2.78;;;1.55;;
58581;SDS011;44361;51.476;5.700;2022-11-23T15:08:45;6.57;;;1.70;;
58581;SDS011;44361;51.476;5.700;2022-11-23T15:11:12;11.95;;;2.35;;
58581;SDS011;44361;51.476;5.700;2022-11-23T15:13:46;4.85;;;2.13;;
58581;SDS011;44361;51.476;5.700;2022-11-23T15:16:14;14.23;;;2.10;;
58581;SDS011;44361;51.476;5.700;2022-11-23T15:18:41;5.45;;;1.73;;
58581;SDS011;44361;51.476;5.700;2022-11-23T15:23:49;7.00;;;2.10;;
58581;SDS011;44361;51.476;5.700;2022-11-23T15:26:18;8.02;;;2.08;;
58581;SDS011;44361;51.476;5.700;2022-11-23T15:28:45;5.72;;;1.90;;
58581;SDS011;44361;51.476;5.700;2022-11-23T15:33:53;7.75;;;2.17;;
58581;SDS011;44361;51.476;5.700;2022-11-23T15:36:22;3.63;;;2.03;;
58581;SDS011;44361;51.476;5.700;2022-11-23T15:38:53;6.63;;;1.98;;
58581;SDS011;44361;51.476;5.700;2022-11-23T15:41:21;7.10;;;1.98;;
58581;SDS011;44361;51.476;5.700;2022-11-23T15:43:52;6.65;;;1.50;;
58581;SDS011;44361;51.476;5.700;2022-11-23T15:46:18;6.05;;;1.75;;
58581;SDS011;44361;51.476;5.700;2022-11-23T15:48:46;5.47;;;1.85;;
58581;SDS011;44361;51.476;5.700;2022-11-23T15:51:20;8.75;;;2.00;;
58581;SDS011;44361;51.476;5.700;2022-11-23T15:56:48;7.55;;;2.05;;
58581;SDS011;44361;51.476;5.700;2022-11-23T15:59:34;8.23;;;1.85;;
58581;SDS011;44361;51.476;5.700;2022-11-23T16:02:09;4.47;;;1.60;;
58581;SDS011;44361;51.476;5.700;2022-11-23T16:04:40;3.05;;;1.50;;
58581;SDS011;44361;51.476;5.700;2022-11-23T16:07:26;5.05;;;1.45;;
58581;SDS011;44361;51.476;5.700;2022-11-23T16:12:47;2.47;;;1.20;;
58581;SDS011;44361;51.476;5.700;2022-11-23T16:18:21;3.67;;;1.30;;
58581;SDS011;44361;51.476;5.700;2022-11-23T16:20:56;5.65;;;1.42;;
58581;SDS011;44361;51.476;5.700;2022-11-23T16:23:28;4.70;;;1.40;;
58581;SDS011;44361;51.476;5.700;2022-11-23T16:26:19;7.47;;;1.67;;
58581;SDS011;44361;51.476;5.700;2022-11-23T16:28:53;3.33;;;1.50;;
58581;SDS011;44361;51.476;5.700;2022-11-23T16:31:34;4.85;;;1.40;;
58581;SDS011;44361;51.476;5.700;2022-11-23T16:34:01;8.32;;;1.75;;
58581;SDS011;44361;51.476;5.700;2022-11-23T16:36:27;4.75;;;1.80;;
58581;SDS011;44361;51.476;5.700;2022-11-23T16:38:54;5.22;;;1.48;;
58581;SDS011;44361;51.476;5.700;2022-11-23T16:41:19;4.45;;;1.40;;
58581;SDS011;44361;51.476;5.700;2022-11-23T16:43:48;5.53;;;1.85;;
58581;SDS011;44361;51.476;5.700;2022-11-23T16:46:18;4.75;;;1.70;;
58581;SDS011;44361;51.476;5.700;2022-11-23T16:48:43;5.97;;;1.48;;
58581;SDS011;44361;51.476;5.700;2022-11-23T16:51:10;6.47;;;2.15;;
58581;SDS011;44361;51.476;5.700;2022-11-23T16:53:38;2.28;;;1.60;;
58581;SDS011;44361;51.476;5.700;2022-11-23T16:56:08;5.22;;;1.58;;
58581;SDS011;44361;51.476;5.700;2022-11-23T16:58:36;3.78;;;1.90;;
58581;SDS011;44361;51.476;5.700;2022-11-23T17:01:03;10.93;;;1.55;;